Hlavní strana
METAR-TAF:

METAR-TAF

Letiště :

Parma, Itálie

zeměpisná šířka: 44-49-17N, zeměpisná délka: 010-17-41E, výška: 50 m

Aktuální stav počasí

Zpráva byla vytvořena před 21 minutami, v 10:50 UTC
vítr z různých směrů 2 kt
Teplota 26°C
Vlhkost vzduchu 58%
Tlak 1016 hPa
Viditelnost 10 km a více
Žádná oblačnost pod 1500 m, nevyskytují se cumulonimby.

METAR: LIMP 251050Z VRB02KT CAVOK 26/17 Q1016

Čas: 13:11 (11:11 UTC)

Předpověď počasí

Zpráva byla vytvořena před 6 hodinami a 11 minutami, v 05:00 UTC
Předpověď platná od 25 v 06 UTC do 26 v 06 UTC
vítr z různých směrů 5 kt
Viditelnost 10 km a více
Žádná oblačnost pod 1500 m, nevyskytují se cumulonimby.

TAF: LIMP 250500Z 2506/2606 VRB05KT CAVOK

Stav a předpovědi počasí z více než 4 000 letišť (zprávy METAR a TAF).

Červené a žluté tečky na mapě představují dostupné meteorologické stanice.

Když kurzor umístíte na tečku, zobrazí se název stanice.

Pak kliknutím zobrazíte stav a předpověď počasí.

Chcete-li změnit mapu, kliknutím na zelené tlačítko se znaménkem +mapu přiblížíte, kliknutím na zelené tlačítko se znaménkem – mapu oddálíte a kliknutím na zelené šipky přejdete na sousední mapy.


METAR-TAF: